Time;durP1;ratioP1;P1;durP2;ratioP2;P2;SDS_P1;SDS_P2;PMS_P1;PMS_P2;Temp;Humidity;BMP_temperature;BMP_pressure;BME280_temperature;BME280_humidity;BME280_pressure;Samples;Min_cycle;Max_cycle;Signal;HPM_P1;HPM_P2
2022/08/29 00:00:00;;;;;;;20.90;11.38;;;;;;;19.91;91.93;99988.13;1704143;84;21095;-62
2022/08/29 00:02:30;;;;;;;20.10;11.25;;;;;;;19.94;92.38;99983.42;1710652;84;21083;-63
2022/08/29 00:05:01;;;;;;;18.37;10.98;;;;;;;19.98;92.66;99988.44;1713582;84;21451;-63
2022/08/29 00:07:34;;;;;;;20.37;10.82;;;;;;;19.99;92.82;99984.55;1707751;84;21459;-62
2022/08/29 00:10:06;;;;;;;17.73;11.22;;;;;;;20.00;92.98;99984.28;1708552;84;21099;-62
2022/08/29 00:12:38;;;;;;;22.13;10.65;;;;;;;19.98;93.26;99982.88;1709584;84;21542;-63
2022/08/29 00:15:11;;;;;;;20.95;10.30;;;;;;;19.98;93.55;99975.92;1709387;84;21485;-63
2022/08/29 00:17:43;;;;;;;18.55;10.15;;;;;;;20.01;93.91;99976.78;1710928;84;21550;-61
2022/08/29 00:20:19;;;;;;;15.90;10.53;;;;;;;20.01;94.01;99974.00;1713566;84;21091;-63
2022/08/29 00:22:51;;;;;;;;;;;;;;;20.02;94.25;99976.51;1712091;84;21075;-64
2022/08/29 00:25:24;;;;;;;17.48;9.88;;;;;;;20.04;94.43;99977.63;1710598;83;20200;-63
2022/08/29 00:27:55;;;;;;;16.60;9.93;;;;;;;20.04;94.68;99974.30;1709504;84;21115;-63
2022/08/29 00:30:26;;;;;;;18.90;9.65;;;;;;;20.02;94.60;99979.84;1708723;84;21103;-63
2022/08/29 00:32:56;;;;;;;13.98;8.65;;;;;;;20.04;94.99;99980.41;1714339;84;21007;-63
2022/08/29 00:35:29;;;;;;;13.58;8.78;;;;;;;20.05;95.04;99978.75;1709252;84;21102;-63
2022/08/29 00:38:00;;;;;;;18.00;9.38;;;;;;;20.05;94.98;99982.08;1709722;84;21059;-63
2022/08/29 00:40:35;;;;;;;14.15;9.08;;;;;;;20.05;94.98;99979.30;1697696;84;21056;-63
2022/08/29 00:43:07;;;;;;;16.65;9.08;;;;;;;20.06;95.07;99976.80;1710090;84;21075;-63
2022/08/29 00:45:48;;;;;;;16.35;8.60;;;;;;;20.04;95.08;99977.08;1698241;84;21064;-62
2022/08/29 00:48:18;;;;;;;14.45;9.40;;;;;;;20.06;95.24;99979.58;1706427;84;21011;-63
2022/08/29 00:50:52;;;;;;;13.78;8.53;;;;;;;20.06;95.24;99969.85;1688188;84;21035;-63
2022/08/29 00:53:32;;;;;;;16.40;8.40;;;;;;;20.03;95.17;99967.61;1696415;83;21444;-63
2022/08/29 00:56:04;;;;;;;19.10;8.50;;;;;;;20.02;95.33;99972.33;1696868;84;21558;-62
2022/08/29 00:58:41;;;;;;;15.70;8.18;;;;;;;20.02;95.57;99978.45;1691869;84;21036;-63
2022/08/29 01:01:12;;;;;;;17.48;9.33;;;;;;;20.02;95.64;99974.28;1691746;84;21079;-62
2022/08/29 01:03:41;;;;;;;14.15;8.63;;;;;;;20.01;95.89;99972.61;1702789;84;21103;-63
2022/08/29 01:06:12;;;;;;;13.38;8.33;;;;;;;20.03;96.11;99975.40;1708280;84;21027;-63
2022/08/29 01:08:42;;;;;;;14.87;8.03;;;;;;;20.03;96.21;99969.00;1708285;84;21432;-63
2022/08/29 01:14:02;;;;;;;12.58;8.20;;;;;;;20.04;96.07;99970.67;1699100;84;21040;-62
2022/08/29 01:16:34;;;;;;;14.93;7.00;;;;;;;19.98;96.00;99962.86;1704231;84;21031;-64
2022/08/29 01:19:25;;;;;;;12.78;7.10;;;;;;;19.95;95.70;99969.80;1689308;84;20995;-64
2022/08/29 01:22:19;;;;;;;12.15;6.90;;;;;;;19.94;95.81;99965.34;1702094;83;21040;-63
2022/08/29 01:24:50;;;;;;;11.25;6.60;;;;;;;19.94;95.89;99965.89;1697205;84;21350;-64
2022/08/29 01:27:23;;;;;;;11.05;6.62;;;;;;;19.95;96.07;99964.23;1657967;85;21509;-63
2022/08/29 01:29:52;;;;;;;13.43;6.78;;;;;;;19.97;95.98;99967.30;1693264;84;21072;-66
2022/08/29 01:32:24;;;;;;;11.20;6.58;;;;;;;19.97;96.03;99965.36;1702867;84;21028;-62
2022/08/29 01:34:54;;;;;;;8.63;5.90;;;;;;;19.98;95.94;99960.08;1677430;84;21036;-63
2022/08/29 01:37:25;;;;;;;13.38;6.08;;;;;;;19.99;95.96;99963.70;1703056;84;21111;-64
2022/08/29 01:39:55;;;;;;;9.80;6.30;;;;;;;19.99;95.94;99954.80;1692384;84;21060;-63
2022/08/29 01:42:25;;;;;;;11.73;6.20;;;;;;;20.00;95.86;99958.42;1688469;84;21119;-62
2022/08/29 01:44:58;;;;;;;10.55;5.97;;;;;;;19.98;95.72;99961.47;1713939;84;21028;-63
2022/08/29 01:47:34;;;;;;;9.75;6.10;;;;;;;19.98;95.74;99959.23;1699003;84;21036;-62
2022/08/29 01:50:08;;;;;;;11.48;5.67;;;;;;;19.98;95.85;99964.25;1688252;84;21115;-63
2022/08/29 01:52:38;;;;;;;12.78;5.60;;;;;;;19.98;95.85;99955.91;1687398;84;21036;-63
2022/08/29 01:55:09;;;;;;;11.57;5.80;;;;;;;19.98;95.76;99953.68;1687887;84;21459;-63
2022/08/29 01:57:39;;;;;;;8.50;5.47;;;;;;;19.98;95.74;99963.41;1699242;84;21056;-64
2022/08/29 02:00:10;;;;;;;13.20;6.12;;;;;;;19.94;95.84;99958.95;1696698;84;21056;-63
2022/08/29 02:02:42;;;;;;;10.43;5.83;;;;;;;19.92;95.98;99956.44;1712433;84;21020;-62
2022/08/29 02:05:12;;;;;;;9.80;6.28;;;;;;;19.92;96.06;99953.66;1703590;84;21079;-63
2022/08/29 02:07:43;;;;;;;8.70;5.62;;;;;;;19.93;96.11;99956.72;1714172;84;21074;-63
2022/08/29 02:10:14;;;;;;;8.90;5.60;;;;;;;19.93;95.89;99955.33;1703791;84;21035;-63
2022/08/29 02:12:43;;;;;;;9.48;6.05;;;;;;;19.93;95.83;99955.33;1713747;84;21032;-62
2022/08/29 02:15:15;;;;;;;11.73;5.95;;;;;;;19.93;95.85;99951.70;1703853;84;21166;-62
2022/08/29 02:17:45;;;;;;;10.72;6.20;;;;;;;19.92;95.51;99952.27;1714457;84;21063;-63
2022/08/29 02:20:18;;;;;;;12.88;6.20;;;;;;;19.86;95.15;99950.56;1714274;84;21051;-62
2022/08/29 02:22:48;;;;;;;9.60;6.25;;;;;;;19.84;95.31;99955.55;1714352;84;21000;-63
2022/08/29 02:28:11;;;;;;;14.33;5.90;;;;;;;19.84;95.56;99951.39;1712842;84;21487;-62
2022/08/29 02:30:42;;;;;;;13.98;6.90;;;;;;;19.82;95.59;99951.38;1708382;84;21130;-63
2022/08/29 02:33:12;;;;;;;11.90;6.15;;;;;;;19.82;95.60;99950.81;1710250;84;21459;-63
2022/08/29 02:35:43;;;;;;;9.65;6.30;;;;;;;19.79;95.25;99955.53;1714130;84;21023;-62
2022/08/29 02:38:13;;;;;;;9.98;6.33;;;;;;;19.76;95.07;99957.45;1713975;83;21366;-63
2022/08/29 02:40:43;;;;;;;9.13;5.90;;;;;;;19.70;94.73;99957.70;1714018;84;21071;-63
2022/08/29 02:43:15;;;;;;;10.70;5.97;;;;;;;19.63;94.70;99956.55;1711077;84;21075;-63
2022/08/29 02:45:44;;;;;;;10.30;6.22;;;;;;;19.56;94.49;99962.34;1699197;84;21040;-63
2022/08/29 02:48:15;;;;;;;10.40;6.53;;;;;;;19.51;94.64;99960.88;1706808;84;21455;-63
2022/08/29 02:50:48;;;;;;;10.78;5.75;;;;;;;19.46;94.65;99959.97;1708798;84;21123;-63
2022/08/29 02:53:20;;;;;;;9.80;6.50;;;;;;;19.40;94.86;99956.88;1708748;84;22285;-64
2022/08/29 02:55:50;;;;;;;11.33;6.47;;;;;;;19.39;95.18;99957.42;1708186;84;21102;-63
2022/08/29 02:58:40;;;;;;;8.70;6.00;;;;;;;19.36;95.13;99954.34;1705748;84;21083;-63
2022/08/29 03:01:10;;;;;;;9.53;5.85;;;;;;;19.30;95.20;99952.91;1703047;82;21144;-62
2022/08/29 03:03:41;;;;;;;12.00;6.12;;;;;;;19.28;95.20;99959.29;1704149;83;21044;-62
2022/08/29 03:06:11;;;;;;;9.58;5.72;;;;;;;19.24;95.05;99959.53;1710156;83;21409;-63
2022/08/29 03:08:42;;;;;;;9.95;6.08;;;;;;;19.22;95.09;99961.73;1713873;82;21013;-64
2022/08/29 03:11:13;;;;;;;11.05;6.37;;;;;;;19.21;94.95;99970.34;1726044;83;20974;-64
2022/08/29 03:13:45;;;;;;;12.55;6.62;;;;;;;19.19;94.73;99971.16;1716437;83;21012;-62
2022/08/29 03:16:15;;;;;;;13.43;6.62;;;;;;;19.16;94.63;99972.52;1722777;83;21009;-62
2022/08/29 03:18:47;;;;;;;11.20;6.20;;;;;;;19.20;94.58;99972.83;1707230;83;21075;-63
2022/08/29 03:21:20;;;;;;;11.22;6.22;;;;;;;19.23;94.08;99975.08;1699382;83;21040;-63
2022/08/29 03:23:50;;;;;;;11.15;6.10;;;;;;;19.27;93.46;99984.00;1715047;82;21615;-63
2022/08/29 03:26:22;;;;;;;13.25;5.95;;;;;;;19.31;92.53;99985.15;1711883;82;21446;-61
2022/08/29 03:28:52;;;;;;;10.75;6.17;;;;;;;19.32;91.71;99979.88;1716109;83;21044;-63
2022/08/29 03:31:21;;;;;;;15.03;6.30;;;;;;;19.31;91.25;99979.59;1699603;83;20981;-62
2022/08/29 03:33:52;;;;;;;12.07;5.87;;;;;;;19.24;90.82;99984.53;1726519;82;21449;-63
2022/08/29 03:36:23;;;;;;;9.63;6.03;;;;;;;19.18;90.84;99980.04;1713588;82;21002;-64
2022/08/29 03:38:55;;;;;;;11.65;6.08;;;;;;;19.11;90.86;99979.42;1698086;83;21444;-63
2022/08/29 03:41:27;;;;;;;12.18;6.35;;;;;;;19.10;91.16;99979.69;1711126;83;21065;-64
2022/08/29 03:44:01;;;;;;;11.33;6.78;;;;;;;19.06;91.13;99983.54;1707491;82;21472;-63
2022/08/29 03:46:28;;;;;;;11.15;6.22;;;;;;;19.02;91.09;99982.39;1698071;83;21035;-62
2022/08/29 03:48:58;;;;;;;13.30;5.87;;;;;;;18.98;90.89;99990.41;1709637;83;21063;-63
2022/08/29 03:51:30;;;;;;;10.78;5.92;;;;;;;18.94;90.68;99984.26;1666489;85;21080;-64
2022/08/29 03:53:59;;;;;;;8.83;6.08;;;;;;;18.95;91.07;99985.38;1646253;86;21047;-64
2022/08/29 03:56:31;;;;;;;10.20;7.30;;;;;;;18.95;91.24;99988.72;1669889;85;21079;-65
2022/08/29 03:59:00;;;;;;;12.47;6.00;;;;;;;18.98;91.47;99993.19;1721617;83;21037;-63
2022/08/29 04:01:29;;;;;;;13.83;6.53;;;;;;;19.00;91.47;99996.54;1709762;83;21080;-63
2022/08/29 04:04:00;;;;;;;15.28;5.83;;;;;;;19.00;91.22;99999.31;1711360;83;21025;-63
2022/08/29 04:06:30;;;;;;;8.40;5.45;;;;;;;18.99;90.95;99997.64;1710372;82;21512;-65
2022/08/29 04:09:01;;;;;;;15.18;6.42;;;;;;;18.98;90.76;100008.46;1707015;82;21053;-63
2022/08/29 04:11:32;;;;;;;13.05;5.90;;;;;;;18.95;90.67;100001.20;1710541;82;21045;-64
2022/08/29 04:14:02;;;;;;;13.40;6.47;;;;;;;18.91;90.50;100009.77;1710519;83;21041;-63
2022/08/29 04:16:33;;;;;;;12.82;7.40;;;;;;;18.88;90.58;100008.91;1705197;82;20993;-64
2022/08/29 04:19:04;;;;;;;12.05;6.97;;;;;;;18.85;90.73;100006.08;1693917;83;21704;-62
2022/08/29 04:21:37;;;;;;;13.45;6.70;;;;;;;18.87;91.10;100003.91;1712778;82;21002;-63
2022/08/29 04:24:07;;;;;;;14.05;6.33;;;;;;;18.92;91.25;100005.89;1694068;83;21064;-63
2022/08/29 04:26:36;;;;;;;13.70;6.70;;;;;;;18.96;91.01;100012.05;1694952;82;21008;-63
2022/08/29 04:29:09;;;;;;;13.98;6.60;;;;;;;18.99;90.96;100002.36;1719699;82;21079;-63
2022/08/29 04:31:40;;;;;;;13.48;6.65;;;;;;;19.03;90.55;100003.50;1713620;82;21449;-64
2022/08/29 04:34:12;;;;;;;12.47;6.70;;;;;;;19.07;90.25;100006.05;1709956;83;21045;-64
2022/08/29 04:36:47;;;;;;;12.13;7.20;;;;;;;19.13;89.88;100001.38;1712205;82;21000;-65
2022/08/29 04:39:14;;;;;;;13.55;7.53;;;;;;;19.21;89.48;100007.84;1705165;82;21637;-64
2022/08/29 04:41:44;;;;;;;13.10;6.83;;;;;;;19.28;88.83;100005.67;1693627;83;21088;-65
2022/08/29 04:44:13;;;;;;;14.60;6.83;;;;;;;19.36;88.04;100009.91;1699897;83;21041;-64
2022/08/29 04:46:43;;;;;;;16.57;6.72;;;;;;;19.42;87.69;100011.07;1709959;83;20990;-63
2022/08/29 04:49:14;;;;;;;13.38;5.90;;;;;;;19.47;87.07;100008.34;1715713;83;21067;-63
2022/08/29 04:51:44;;;;;;;18.27;6.87;;;;;;;19.50;86.42;100008.36;1660280;85;21103;-65
2022/08/29 04:54:14;;;;;;;10.68;6.00;;;;;;;19.51;86.38;100005.34;1693557;83;21060;-63
2022/08/29 04:56:44;;;;;;;12.75;6.37;;;;;;;19.51;86.23;100005.89;1704637;83;21065;-62
2022/08/29 04:59:16;;;;;;;12.75;6.17;;;;;;;19.54;86.23;100006.78;1703309;82;21032;-62
2022/08/29 05:01:46;;;;;;;13.85;5.22;;;;;;;19.57;85.99;100003.47;1705377;82;21026;-64
2022/08/29 05:04:16;;;;;;;13.83;5.60;;;;;;;19.61;85.21;100008.78;1716087;83;21032;-64
2022/08/29 05:06:47;;;;;;;14.78;5.90;;;;;;;19.66;82.67;100006.03;1705016;83;21080;-63
2022/08/29 05:09:19;;;;;;;14.20;6.10;;;;;;;19.77;81.44;100007.78;1709577;83;21492;-64
2022/08/29 05:11:49;;;;;;;14.73;5.70;;;;;;;19.86;80.73;100008.95;1698582;83;20997;-66
2022/08/29 05:14:19;;;;;;;13.90;5.25;;;;;;;19.92;79.46;100005.09;1655712;85;21051;-64
2022/08/29 05:16:49;;;;;;;12.90;5.80;;;;;;;20.00;78.03;100009.87;1705330;83;21084;-63
2022/08/29 05:19:20;;;;;;;8.70;5.08;;;;;;;20.08;76.54;100009.36;1709645;83;21074;-63
2022/08/29 05:21:56;;;;;;;12.00;6.28;;;;;;;20.14;75.51;100010.50;1709515;83;21045;-63
2022/08/29 05:24:23;;;;;;;15.20;6.40;;;;;;;20.22;75.30;100018.92;1697479;83;20987;-64
2022/08/29 05:26:55;;;;;;;14.75;6.12;;;;;;;20.28;75.47;100011.44;1689553;82;21037;-64
2022/08/29 05:29:26;;;;;;;12.95;6.00;;;;;;;20.36;75.43;100005.34;1693648;83;21455;-62
2022/08/29 05:31:56;;;;;;;14.55;6.60;;;;;;;20.41;75.44;100004.01;1704370;82;21012;-63
2022/08/29 05:34:27;;;;;;;14.87;6.60;;;;;;;20.46;74.75;100002.64;1705237;82;21032;-62
2022/08/29 05:36:59;;;;;;;15.85;6.62;;;;;;;20.50;73.62;100003.21;1692618;83;20997;-63
2022/08/29 05:39:30;;;;;;;20.88;8.63;;;;;;;20.58;72.49;100013.81;1710438;82;21442;-63
2022/08/29 05:42:01;;;;;;;15.83;7.90;;;;;;;20.65;71.91;100013.56;1698585;83;21033;-63
2022/08/29 05:44:31;;;;;;;15.28;7.95;;;;;;;20.73;71.71;100010.80;1697871;83;21084;-65
2022/08/29 05:47:08;;;;;;;16.75;7.80;;;;;;;20.79;71.68;100014.71;1698232;83;21048;-63
2022/08/29 05:49:41;;;;;;;17.25;7.85;;;;;;;20.87;71.39;100005.02;1710432;82;21458;-63
2022/08/29 05:52:11;;;;;;;20.10;8.35;;;;;;;20.93;71.69;100012.83;1709375;83;21429;-63
2022/08/29 05:54:42;;;;;;;18.23;9.15;;;;;;;20.99;71.47;100011.17;1715036;83;21063;-65
2022/08/29 05:57:13;;;;;;;17.50;7.85;;;;;;;21.04;70.93;100011.17;1705505;82;21036;-63
2022/08/29 05:59:45;;;;;;;14.65;7.58;;;;;;;21.08;71.04;100005.33;1713980;83;21462;-63
2022/08/29 06:02:15;;;;;;;19.27;8.43;;;;;;;21.11;71.13;100005.33;1717195;82;21499;-63
2022/08/29 06:04:47;;;;;;;26.70;15.18;;;;;;;21.12;70.95;100009.23;1704569;83;21044;-64
2022/08/29 06:07:16;;;;;;;13.03;8.28;;;;;;;21.16;70.90;100010.36;1689968;85;21036;-63
2022/08/29 06:09:51;;;;;;;17.30;9.83;;;;;;;21.24;70.20;100013.73;1694037;82;21534;-64
2022/08/29 06:12:21;;;;;;;19.82;9.60;;;;;;;21.31;69.46;100010.95;1715295;83;21480;-64
2022/08/29 06:14:53;;;;;;;18.40;9.35;;;;;;;21.38;67.48;100008.73;1702738;83;21008;-63
2022/08/29 06:17:26;;;;;;;17.30;9.10;;;;;;;21.49;66.70;100013.77;1705208;83;21028;-65
2022/08/29 06:19:57;;;;;;;22.90;9.73;;;;;;;21.58;66.70;100011.26;1693001;83;21072;-63
2022/08/29 06:22:27;;;;;;;16.95;9.68;;;;;;;21.64;67.12;100019.34;1707483;82;21039;-62
2022/08/29 06:24:57;;;;;;;16.00;9.93;;;;;;;21.69;66.58;100012.36;1721039;82;21022;-62
2022/08/29 06:27:30;;;;;;;21.93;9.80;;;;;;;21.76;66.21;100007.89;1698040;83;20980;-63
2022/08/29 06:29:59;;;;;;;18.87;10.50;;;;;;;21.83;65.01;100009.84;1709396;82;21082;-63
2022/08/29 06:32:31;;;;;;;24.15;11.00;;;;;;;21.92;64.09;100010.09;1690974;83;21037;-63
2022/08/29 06:35:04;;;;;;;22.95;11.75;;;;;;;22.01;63.54;100019.56;1641969;85;21079;-62
2022/08/29 06:37:35;;;;;;;18.82;10.80;;;;;;;22.09;64.08;100016.22;1615343;86;21102;-63
2022/08/29 06:40:06;;;;;;;20.30;11.10;;;;;;;22.17;62.79;100019.86;1701394;82;21077;-63
2022/08/29 06:42:37;;;;;;;21.95;11.48;;;;;;;22.26;62.99;100017.32;1707972;83;21016;-63
2022/08/29 06:45:09;;;;;;;19.00;10.15;;;;;;;22.32;62.37;100019.81;1693109;83;20994;-63
2022/08/29 06:47:39;;;;;;;22.37;11.78;;;;;;;22.40;61.05;100028.98;1695214;83;21009;-63
2022/08/29 06:50:10;;;;;;;19.37;11.18;;;;;;;22.49;61.21;100020.86;1721209;83;21041;-64
2022/08/29 06:52:40;;;;;;;19.45;10.90;;;;;;;22.57;60.65;100031.99;1696269;83;21539;-63
2022/08/29 06:55:12;;;;;;;19.55;11.70;;;;;;;22.66;60.05;100026.92;1661574;86;21035;-65
2022/08/29 06:57:44;;;;;;;22.25;10.82;;;;;;;22.74;60.12;100026.32;1651685;85;21075;-62
2022/08/29 07:00:14;;;;;;;17.10;10.23;;;;;;;22.83;59.89;100033.59;1693277;83;21063;-63
2022/08/29 07:02:50;;;;;;;18.35;11.03;;;;;;;23.01;59.26;100032.94;1704665;83;21056;-63
2022/08/29 07:05:22;;;;;;;28.52;12.20;;;;;;;23.36;58.94;100033.81;1717191;82;21017;-63
2022/08/29 07:07:52;;;;;;;19.90;11.28;;;;;;;23.89;58.13;100041.80;1694908;83;21048;-63
2022/08/29 07:10:22;;;;;;;20.62;11.28;;;;;;;24.44;55.62;100042.38;1693156;83;21009;-63
2022/08/29 07:12:54;;;;;;;19.12;10.98;;;;;;;25.02;53.17;100038.03;1659074;85;21071;-64
2022/08/29 07:15:25;;;;;;;21.33;12.47;;;;;;;25.52;51.37;100032.80;1705399;83;21067;-64
2022/08/29 07:17:56;;;;;;;29.05;12.78;;;;;;;25.85;51.63;100030.86;1696776;83;21056;-63
2022/08/29 07:20:28;;;;;;;22.13;12.70;;;;;;;26.05;50.82;100033.32;1706434;82;21027;-65
2022/08/29 07:22:57;;;;;;;25.27;12.63;;;;;;;26.31;49.05;100030.02;1706147;83;21052;-65
2022/08/29 07:25:28;;;;;;;22.00;12.60;;;;;;;26.62;48.46;100038.69;1711044;82;21044;-64
2022/08/29 07:27:59;;;;;;;24.82;12.23;;;;;;;26.96;47.84;100031.22;1696560;82;21492;-63
2022/08/29 07:30:29;;;;;;;24.05;11.88;;;;;;;27.27;47.40;100026.58;1705387;82;21537;-62
2022/08/29 07:33:00;;;;;;;20.30;10.82;;;;;;;27.58;46.96;100027.27;1705323;83;21150;-64
2022/08/29 07:35:32;;;;;;;20.72;10.90;;;;;;;27.91;45.56;100032.90;1698952;82;21486;-65
2022/08/29 07:38:02;;;;;;;16.93;10.35;;;;;;;28.29;44.20;100028.27;1694879;83;21038;-63
2022/08/29 07:40:32;;;;;;;26.07;11.33;;;;;;;28.65;43.32;100031.75;1699224;82;21103;-64
2022/08/29 07:43:04;;;;;;;20.17;11.88;;;;;;;28.99;42.84;100031.60;1678053;83;21009;-64
2022/08/29 07:45:34;;;;;;;22.62;12.58;;;;;;;29.33;41.65;100021.78;1694047;83;21131;-64
2022/08/29 07:48:04;;;;;;;18.45;10.75;;;;;;;29.60;40.39;100021.21;1611867;85;21528;-63
2022/08/29 07:50:37;;;;;;;21.80;11.50;;;;;;;29.81;40.32;100025.00;1705136;83;21013;-64
2022/08/29 07:53:09;;;;;;;16.80;10.90;;;;;;;30.01;39.42;100017.83;1687223;82;21024;-65
2022/08/29 07:55:39;;;;;;;17.60;10.40;;;;;;;30.17;40.21;100028.03;1701088;83;21009;-64
2022/08/29 07:58:07;;;;;;;15.98;10.32;;;;;;;30.31;38.39;100026.41;1694051;83;21060;-67
2022/08/29 08:00:36;;;;;;;17.25;10.60;;;;;;;30.46;38.52;100023.84;1655651;84;21051;-64
2022/08/29 08:03:07;;;;;;;18.25;10.88;;;;;;;30.70;38.27;100025.27;1660802;85;21078;-64
2022/08/29 08:05:38;;;;;;;15.95;10.78;;;;;;;30.85;37.81;100027.52;1654569;83;21031;-64
2022/08/29 08:08:10;;;;;;;18.98;11.38;;;;;;;30.98;37.64;100025.01;1638463;85;21082;-64
2022/08/29 08:10:43;;;;;;;17.30;11.30;;;;;;;31.05;37.54;100021.05;1651819;85;21019;-63
2022/08/29 08:13:16;;;;;;;18.50;11.25;;;;;;;31.25;37.82;100021.46;1705458;82;20982;-64
2022/08/29 08:15:46;;;;;;;18.20;10.35;;;;;;;31.44;37.26;100030.29;1703341;82;20984;-63
2022/08/29 08:18:17;;;;;;;17.48;11.68;;;;;;;31.66;36.58;100034.17;1719741;82;20995;-63
2022/08/29 08:20:47;;;;;;;20.17;11.22;;;;;;;31.91;36.23;100025.23;1700164;83;21742;-65
2022/08/29 08:23:20;;;;;;;20.97;10.58;;;;;;;32.13;35.78;100026.22;1705368;83;21152;-64
2022/08/29 08:25:51;;;;;;;14.58;10.18;;;;;;;32.39;35.27;100029.36;1711752;83;21091;-64
2022/08/29 08:28:20;;;;;;;18.60;10.60;;;;;;;32.51;34.32;100034.22;1709244;83;21061;-65
2022/08/29 08:30:50;;;;;;;28.55;10.58;;;;;;;32.61;33.46;100028.93;1700959;83;20986;-62
2022/08/29 08:33:20;;;;;;;15.80;9.98;;;;;;;32.60;33.79;100027.87;1699555;83;21037;-65
2022/08/29 08:35:50;;;;;;;13.85;10.23;;;;;;;32.65;33.50;100031.30;1709680;83;21425;-61
2022/08/29 08:38:20;;;;;;;23.75;10.50;;;;;;;32.66;33.61;100034.37;1626127;87;21181;-63
2022/08/29 08:41:04;;;;;;;18.50;9.73;;;;;;;32.76;33.58;100037.32;1613681;87;21089;-62
2022/08/29 08:43:57;;;;;;;15.48;9.65;;;;;;;32.91;33.25;100035.20;1613735;87;21533;-62
2022/08/29 08:46:41;;;;;;;16.85;9.50;;;;;;;32.95;32.26;100028.23;1622814;88;21517;-63
2022/08/29 08:49:23;;;;;;;15.38;9.80;;;;;;;32.95;32.45;100033.31;1626455;87;21103;-61
2022/08/29 08:52:02;;;;;;;16.20;9.68;;;;;;;32.88;32.07;100033.08;1626276;88;21086;-62
2022/08/29 08:54:35;;;;;;;;;;;;;;;32.88;32.30;100035.92;1638116;86;21130;-63
2022/08/29 08:57:10;;;;;;;16.10;9.93;;;;;;;32.90;31.80;100032.14;1663198;84;20247;-64
2022/08/29 08:59:45;;;;;;;17.12;9.25;;;;;;;32.81;31.87;100044.20;1680728;82;21059;-63
2022/08/29 09:02:28;;;;;;;17.43;9.33;;;;;;;32.72;31.93;100034.95;1730700;81;21076;-62
2022/08/29 09:05:31;;;;;;;14.80;9.30;;;;;;;32.55;31.47;100033.78;1759040;81;21063;-63
2022/08/29 09:08:47;;;;;;;18.12;9.35;;;;;;;32.32;32.11;100034.20;1639500;86;21103;-61
2022/08/29 09:11:45;;;;;;;15.88;8.93;;;;;;;32.14;32.20;100032.12;1640626;86;21048;-62
2022/08/29 09:14:24;;;;;;;13.40;8.70;;;;;;;31.84;31.49;100039.94;1605500;87;21109;-62
2022/08/29 09:16:54;;;;;;;14.35;9.05;;;;;;;31.60;31.31;100022.81;1644658;85;21104;-61
2022/08/29 09:19:25;;;;;;;15.93;8.80;;;;;;;31.38;32.08;100031.67;1635000;87;21156;-62
2022/08/29 09:22:08;;;;;;;11.73;8.40;;;;;;;31.30;32.52;100031.16;1611646;87;22104;-63
2022/08/29 09:24:44;;;;;;;16.62;8.48;;;;;;;31.24;31.57;100029.12;1637257;86;21041;-61
2022/08/29 09:27:22;;;;;;;16.55;8.30;;;;;;;31.09;30.87;100037.58;1628199;86;21024;-62
2022/08/29 09:30:05;;;;;;;14.23;7.75;;;;;;;30.88;31.04;100026.83;1611918;87;21511;-63
2022/08/29 09:33:08;;;;;;;12.73;7.85;;;;;;;30.72;31.12;100025.77;1627377;86;21092;-62
2022/08/29 09:35:54;;;;;;;13.22;7.95;;;;;;;30.65;31.41;100031.13;1623832;87;21060;-63
2022/08/29 09:38:32;;;;;;;12.78;8.30;;;;;;;30.55;31.59;100027.45;1642313;86;21076;-61
2022/08/29 09:41:10;;;;;;;19.57;8.80;;;;;;;30.48;31.29;100022.91;1641376;86;21100;-62
2022/08/29 09:43:45;;;;;;;16.85;8.88;;;;;;;30.36;31.53;100024.80;1642410;85;21027;-62
2022/08/29 09:46:22;;;;;;;14.38;8.53;;;;;;;30.25;31.46;100022.94;1712237;82;21449;-62
2022/08/29 09:49:07;;;;;;;15.80;7.53;;;;;;;30.17;31.47;100021.80;1717214;82;20990;-62
2022/08/29 09:51:40;;;;;;;17.15;8.35;;;;;;;30.15;31.30;100021.31;1701483;83;20981;-61
2022/08/29 09:54:17;;;;;;;13.28;7.45;;;;;;;30.13;31.35;100016.58;1707993;82;21076;-62
2022/08/29 09:57:05;;;;;;;13.95;7.42;;;;;;;30.13;30.74;100017.16;1696101;83;21548;-62
2022/08/29 09:59:39;;;;;;;11.73;6.85;;;;;;;30.09;31.11;100019.00;1692776;85;21472;-64
2022/08/29 10:02:26;;;;;;;10.57;7.47;;;;;;;30.10;31.23;100013.59;1692830;82;21056;-64
2022/08/29 10:05:02;;;;;;;15.80;7.50;;;;;;;30.12;31.56;100006.44;1702986;83;20980;-61
2022/08/29 10:07:43;;;;;;;11.95;7.47;;;;;;;30.20;31.02;100018.88;1666315;84;21442;-65
2022/08/29 10:10:21;;;;;;;14.28;7.55;;;;;;;30.18;30.75;100005.67;1641492;84;21075;-65
2022/08/29 10:13:20;;;;;;;10.60;6.65;;;;;;;30.15;30.70;100011.41;1658764;85;21117;-62
2022/08/29 10:16:04;;;;;;;15.68;7.10;;;;;;;30.13;30.30;100008.09;1690945;83;21106;-62
2022/08/29 10:18:57;;;;;;;12.73;7.30;;;;;;;30.12;30.75;100012.67;1701418;83;21060;-63
2022/08/29 10:21:52;;;;;;;12.85;7.67;;;;;;;30.11;30.54;100009.60;1677009;84;21472;-63
2022/08/29 10:24:48;;;;;;;11.60;6.25;;;;;;;30.12;30.02;100010.67;1700434;83;21098;-62
2022/08/29 10:27:54;;;;;;;12.28;6.85;;;;;;;30.14;29.83;100015.41;1700621;83;21012;-62
2022/08/29 10:30:28;;;;;;;10.03;6.75;;;;;;;30.12;30.03;100004.20;1666724;86;21082;-63
2022/08/29 10:33:28;;;;;;;12.20;6.92;;;;;;;30.12;30.39;100018.33;1693298;82;21029;-65
2022/08/29 10:36:18;;;;;;;11.60;7.17;;;;;;;30.14;30.40;100004.10;1659804;85;21065;-64
2022/08/29 10:39:09;;;;;;;11.22;6.97;;;;;;;30.16;30.38;100003.77;1700110;84;21010;-65
2022/08/29 10:42:00;;;;;;;12.05;7.22;;;;;;;30.15;30.60;100012.00;1678133;84;21053;-66
2022/08/29 10:45:18;;;;;;;11.48;7.25;;;;;;;30.14;30.53;100001.86;1693213;84;21054;-64
2022/08/29 10:47:53;;;;;;;11.20;7.80;;;;;;;30.15;30.54;99996.45;1690099;83;21109;-66
2022/08/29 10:50:59;;;;;;;15.35;7.90;;;;;;;30.16;31.20;99985.39;1674081;83;21001;-66
2022/08/29 10:53:38;;;;;;;15.28;7.72;;;;;;;30.16;31.38;99991.05;1689752;84;21071;-64
2022/08/29 10:56:36;;;;;;;14.40;7.65;;;;;;;30.20;31.09;99996.27;1691888;83;21001;-65
2022/08/29 10:59:17;;;;;;;11.50;7.50;;;;;;;30.21;30.83;99993.69;1703458;83;21033;-65
2022/08/29 11:02:07;;;;;;;16.23;7.40;;;;;;;30.18;31.23;99995.19;1692895;83;21464;-64
2022/08/29 11:04:53;;;;;;;12.28;7.70;;;;;;;30.22;30.84;99995.34;1697220;83;20984;-65
2022/08/29 11:07:44;;;;;;;19.13;7.93;;;;;;;30.29;30.97;99987.16;1710272;83;20990;-66
2022/08/29 11:10:26;;;;;;;11.75;6.92;;;;;;;30.30;30.95;99991.66;1707899;83;21484;-66
2022/08/29 11:13:04;;;;;;;13.93;7.75;;;;;;;30.31;31.46;99997.55;1705885;83;21081;-67
2022/08/29 11:15:54;;;;;;;12.70;7.28;;;;;;;30.32;31.19;99998.38;1692139;82;21009;-64
2022/08/29 11:18:49;;;;;;;12.45;6.85;;;;;;;30.35;31.15;99994.88;1691537;83;21044;-66
2022/08/29 11:21:41;;;;;;;13.70;6.42;;;;;;;30.38;31.07;99990.78;1703273;82;21024;-63
2022/08/29 11:24:11;;;;;;;13.40;6.75;;;;;;;30.39;30.65;99988.20;1691985;82;21036;-65
2022/08/29 11:26:54;;;;;;;17.80;7.60;;;;;;;30.41;30.68;99997.17;1692599;83;21445;-65
2022/08/29 11:29:44;;;;;;;12.88;6.78;;;;;;;30.41;30.62;99992.92;1703557;82;21070;-65
2022/08/29 11:32:43;;;;;;;13.38;6.83;;;;;;;30.39;30.17;99993.02;1691634;83;21095;-67
2022/08/29 11:35:30;;;;;;;13.60;7.10;;;;;;;30.37;30.53;99985.47;1631390;86;21052;-66
2022/08/29 11:38:20;;;;;;;11.38;6.72;;;;;;;30.34;30.80;99992.63;1677013;84;21046;-65
2022/08/29 11:41:10;;;;;;;15.48;7.05;;;;;;;30.34;31.04;99992.63;1687672;84;21467;-65
2022/08/29 11:43:48;;;;;;;11.90;6.95;;;;;;;30.39;30.96;100000.09;1647505;86;21070;-68
2022/08/29 11:46:45;;;;;;;9.35;6.47;;;;;;;30.46;31.12;99988.49;1708990;83;21503;-64
2022/08/29 11:49:35;;;;;;;12.47;7.40;;;;;;;30.57;31.03;99988.97;1662375;86;21574;-65
2022/08/29 11:52:14;;;;;;;11.97;6.80;;;;;;;30.64;31.07;99980.80;1697545;84;21045;-65
2022/08/29 11:54:55;;;;;;;12.43;6.92;;;;;;;30.67;31.12;99988.60;1697842;84;21017;-66
2022/08/29 11:57:36;;;;;;;10.78;6.62;;;;;;;30.71;31.17;99985.91;1683781;84;21033;-65
2022/08/29 12:00:23;;;;;;;14.15;7.00;;;;;;;30.74;31.49;99982.41;1686491;84;21043;-64